Time;durP1;ratioP1;P1;durP2;ratioP2;P2;SDS_P1;SDS_P2;PMS_P1;PMS_P2;Temp;Humidity;BMP_temperature;BMP_pressure;BME280_temperature;BME280_humidity;BME280_pressure;Samples;Min_cycle;Max_cycle;Signal;HPM_P1;HPM_P2
2022/09/27 00:01:04;;;;;;;6.30;1.80;;;;;;;;;;6303419;22;20177;-90
2022/09/27 00:03:32;;;;;;;6.50;1.77;;;;;;;;;;6302348;22;20200;-90
2022/09/27 00:06:04;;;;;;;7.10;1.53;;;;;;;;;;6303689;22;20192;-90
2022/09/27 00:08:32;;;;;;;7.10;1.93;;;;;;;;;;6302980;22;20256;-90
2022/09/27 00:11:02;;;;;;;3.70;1.40;;;;;;;;;;6303025;22;20177;-90
2022/09/27 00:13:30;;;;;;;6.37;1.83;;;;;;;;;;6303270;22;20176;-90
2022/09/27 00:15:58;;;;;;;6.47;1.87;;;;;;;;;;6302832;22;20193;-89
2022/09/27 00:18:26;;;;;;;4.47;1.57;;;;;;;;;;6303177;22;20180;-91
2022/09/27 00:20:53;;;;;;;4.20;1.80;;;;;;;;;;6303312;22;20224;-90
2022/09/27 00:23:20;;;;;;;9.20;2.17;;;;;;;;;;6302715;22;20177;-90
2022/09/27 00:25:57;;;;;;;6.33;1.97;;;;;;;;;;6303144;22;20213;-90
2022/09/27 00:36:14;;;;;;;11.37;2.40;;;;;;;;;;6301183;22;20373;-89
2022/09/27 00:38:42;;;;;;;4.63;2.60;;;;;;;;;;6302278;22;20179;-89
2022/09/27 00:41:11;;;;;;;6.77;3.00;;;;;;;;;;6302831;22;20255;-88
2022/09/27 00:43:46;;;;;;;8.93;2.80;;;;;;;;;;6301665;22;20252;-89
2022/09/27 00:46:17;;;;;;;10.70;2.83;;;;;;;;;;6302165;22;20192;-88
2022/09/27 00:48:45;;;;;;;10.37;2.30;;;;;;;;;;6305382;22;20162;-89
2022/09/27 00:51:13;;;;;;;7.10;2.60;;;;;;;;;;6305508;22;20200;-89
2022/09/27 00:53:45;;;;;;;8.37;2.60;;;;;;;;;;6305696;22;20169;-89
2022/09/27 00:56:15;;;;;;;6.03;2.20;;;;;;;;;;6305033;22;20193;-89
2022/09/27 00:58:46;;;;;;;3.83;1.87;;;;;;;;;;6302626;22;20709;-88
2022/09/27 01:01:13;;;;;;;4.53;1.60;;;;;;;;;;6304565;22;20204;-88
2022/09/27 01:03:43;;;;;;;4.03;1.40;;;;;;;;;;6303279;22;20173;-88
2022/09/27 01:06:11;;;;;;;3.63;1.60;;;;;;;;;;6302563;22;20228;-88
2022/09/27 01:08:40;;;;;;;5.67;1.50;;;;;;;;;;6303014;22;20177;-88
2022/09/27 01:11:14;;;;;;;6.50;1.77;;;;;;;;;;6305939;22;20207;-88
2022/09/27 01:13:46;;;;;;;4.80;1.50;;;;;;;;;;6304802;22;20383;-89
2022/09/27 01:16:19;;;;;;;2.30;1.40;;;;;;;;;;6304361;22;20695;-89
2022/09/27 01:18:53;;;;;;;4.30;1.70;;;;;;;;;;6302351;22;20196;-89
2022/09/27 01:21:31;;;;;;;2.33;1.40;;;;;;;;;;6303688;22;20205;-89
2022/09/27 01:24:16;;;;;;;3.47;1.60;;;;;;;;;;6303788;22;20173;-90
2022/09/27 01:27:07;;;;;;;5.20;1.67;;;;;;;;;;6305540;22;20744;-89
2022/09/27 01:29:42;;;;;;;2.47;1.37;;;;;;;;;;6281319;22;20177;-89
2022/09/27 01:32:15;;;;;;;2.50;1.50;;;;;;;;;;6305313;22;20161;-89
2022/09/27 01:34:44;;;;;;;4.33;1.43;;;;;;;;;;6304226;22;20657;-88
2022/09/27 01:37:19;;;;;;;3.27;1.10;;;;;;;;;;6304638;22;20173;-89
2022/09/27 01:39:50;;;;;;;3.33;1.10;;;;;;;;;;6304913;22;20171;-89
2022/09/27 01:42:22;;;;;;;4.70;1.10;;;;;;;;;;6304815;22;20162;-89
2022/09/27 01:44:52;;;;;;;1.70;1.07;;;;;;;;;;6304359;22;20197;-88
2022/09/27 01:47:23;;;;;;;4.57;1.20;;;;;;;;;;6304731;22;20195;-89
2022/09/27 01:49:55;;;;;;;3.50;1.10;;;;;;;;;;6303588;22;20267;-88
2022/09/27 01:52:24;;;;;;;2.07;0.90;;;;;;;;;;6304160;22;20251;-88
2022/09/27 01:54:53;;;;;;;4.63;1.00;;;;;;;;;;6303549;22;20565;-87
2022/09/27 01:57:23;;;;;;;2.13;1.17;;;;;;;;;;6304223;22;20169;-89
2022/09/27 01:59:54;;;;;;;2.53;1.10;;;;;;;;;;6303769;22;20184;-88
2022/09/27 02:02:27;;;;;;;3.23;1.33;;;;;;;;;;6304235;22;20175;-89
2022/09/27 02:04:56;;;;;;;4.43;1.30;;;;;;;;;;6304116;22;20193;-88
2022/09/27 02:07:24;;;;;;;1.83;1.10;;;;;;;;;;6304489;22;20683;-88
2022/09/27 02:09:53;;;;;;;3.67;1.23;;;;;;;;;;6304079;22;20246;-89
2022/09/27 02:12:23;;;;;;;1.60;1.10;;;;;;;;;;6303993;22;20648;-88
2022/09/27 02:14:52;;;;;;;1.97;1.00;;;;;;;;;;6303571;22;20192;-88
2022/09/27 02:17:23;;;;;;;1.40;1.07;;;;;;;;;;6305146;22;20204;-89
2022/09/27 02:19:57;;;;;;;1.40;1.10;;;;;;;;;;6304680;22;20180;-89
2022/09/27 02:22:27;;;;;;;2.10;1.00;;;;;;;;;;6304099;22;20169;-88
2022/09/27 02:24:57;;;;;;;1.57;1.20;;;;;;;;;;6303734;22;20195;-88
2022/09/27 02:27:28;;;;;;;2.03;0.90;;;;;;;;;;6302676;22;20263;-88
2022/09/27 02:29:59;;;;;;;1.30;1.00;;;;;;;;;;6303882;22;20618;-88
2022/09/27 02:32:28;;;;;;;2.40;1.10;;;;;;;;;;6303733;22;20196;-88
2022/09/27 02:34:58;;;;;;;1.20;1.00;;;;;;;;;;6303615;22;20288;-88
2022/09/27 02:37:25;;;;;;;1.53;1.13;;;;;;;;;;6304591;22;20658;-88
2022/09/27 02:39:53;;;;;;;4.17;1.30;;;;;;;;;;6303596;22;20230;-88
2022/09/27 02:42:21;;;;;;;1.57;1.30;;;;;;;;;;6303204;22;20193;-87
2022/09/27 02:44:48;;;;;;;2.30;1.43;;;;;;;;;;6302992;22;20239;-87
2022/09/27 02:47:30;;;;;;;6.30;1.40;;;;;;;;;;6302781;22;20197;-88
2022/09/27 02:50:15;;;;;;;1.80;1.40;;;;;;;;;;6303762;22;20313;-89
2022/09/27 02:52:50;;;;;;;3.50;1.70;;;;;;;;;;6303468;22;20593;-88
2022/09/27 02:55:20;;;;;;;5.30;1.70;;;;;;;;;;6303503;22;20196;-88
2022/09/27 02:57:54;;;;;;;4.63;1.80;;;;;;;;;;6304250;22;20520;-89
2022/09/27 03:00:23;;;;;;;3.33;1.87;;;;;;;;;;6303362;22;20191;-89
2022/09/27 03:02:53;;;;;;;4.33;1.73;;;;;;;;;;6301735;22;20183;-89
2022/09/27 03:05:22;;;;;;;4.70;1.60;;;;;;;;;;6305521;22;20242;-89
2022/09/27 03:07:51;;;;;;;4.53;1.73;;;;;;;;;;6304097;22;20224;-88
2022/09/27 03:10:19;;;;;;;2.53;1.50;;;;;;;;;;6304012;22;20223;-89
2022/09/27 03:12:47;;;;;;;5.47;1.80;;;;;;;;;;6302795;22;20234;-89
2022/09/27 03:15:14;;;;;;;2.70;1.60;;;;;;;;;;6302223;22;20257;-88
2022/09/27 03:17:42;;;;;;;4.17;1.90;;;;;;;;;;6302210;22;20256;-88
2022/09/27 03:20:10;;;;;;;3.90;1.70;;;;;;;;;;6304011;22;20184;-88
2022/09/27 03:22:39;;;;;;;4.17;2.30;;;;;;;;;;6303812;22;20208;-89
2022/09/27 03:25:09;;;;;;;5.90;2.40;;;;;;;;;;6303201;22;20201;-89
2022/09/27 03:27:37;;;;;;;4.27;2.50;;;;;;;;;;6304451;22;20234;-89
2022/09/27 03:30:05;;;;;;;3.80;2.47;;;;;;;;;;6303133;22;20183;-90
2022/09/27 03:32:32;;;;;;;3.93;2.30;;;;;;;;;;6304121;22;20176;-90
2022/09/27 03:35:00;;;;;;;7.83;2.20;;;;;;;;;;6302182;22;20228;-89
2022/09/27 03:37:28;;;;;;;3.47;1.93;;;;;;;;;;6303875;22;20205;-89
2022/09/27 03:39:56;;;;;;;5.10;1.97;;;;;;;;;;6302451;22;20169;-89
2022/09/27 03:42:24;;;;;;;3.17;1.80;;;;;;;;;;6302724;22;20208;-89
2022/09/27 03:44:51;;;;;;;2.37;1.53;;;;;;;;;;6303775;22;20258;-89
2022/09/27 03:47:19;;;;;;;5.37;1.47;;;;;;;;;;6303248;22;20200;-89
2022/09/27 03:49:46;;;;;;;4.70;1.50;;;;;;;;;;6303557;22;20230;-89
2022/09/27 03:52:14;;;;;;;3.30;1.40;;;;;;;;;;6302349;22;20184;-89
2022/09/27 03:54:41;;;;;;;2.60;1.40;;;;;;;;;;6302942;22;20729;-90
2022/09/27 03:57:09;;;;;;;4.43;1.63;;;;;;;;;;6302915;22;20184;-89
2022/09/27 03:59:38;;;;;;;2.90;1.53;;;;;;;;;;6303406;22;20231;-89
2022/09/27 04:02:05;;;;;;;2.57;1.63;;;;;;;;;;6302384;22;20501;-89
2022/09/27 04:04:32;;;;;;;4.43;1.63;;;;;;;;;;6303674;22;21603;-89
2022/09/27 04:07:00;;;;;;;3.47;1.77;;;;;;;;;;6303419;22;20177;-90
2022/09/27 04:09:28;;;;;;;2.87;1.73;;;;;;;;;;6302368;22;20744;-89
2022/09/27 04:11:55;;;;;;;6.83;2.00;;;;;;;;;;6302137;22;20216;-89
2022/09/27 04:14:22;;;;;;;7.77;2.10;;;;;;;;;;6303433;22;20200;-89
2022/09/27 04:16:51;;;;;;;3.97;1.60;;;;;;;;;;6303008;22;20177;-89
2022/09/27 04:19:18;;;;;;;5.23;1.90;;;;;;;;;;6302016;22;20169;-89
2022/09/27 04:21:46;;;;;;;4.13;1.83;;;;;;;;;;6301867;22;20173;-88
2022/09/27 04:24:13;;;;;;;4.37;1.77;;;;;;;;;;6301801;22;20260;-89
2022/09/27 04:26:41;;;;;;;5.03;2.00;;;;;;;;;;6301349;22;20252;-87
2022/09/27 04:29:09;;;;;;;3.07;1.97;;;;;;;;;;6303594;22;20223;-88
2022/09/27 04:31:37;;;;;;;2.80;2.27;;;;;;;;;;6302633;22;20557;-88
2022/09/27 04:34:06;;;;;;;3.47;2.10;;;;;;;;;;6302403;22;20695;-88
2022/09/27 04:36:33;;;;;;;2.57;1.53;;;;;;;;;;6302172;22;20196;-88
2022/09/27 04:39:01;;;;;;;3.00;1.87;;;;;;;;;;6303526;22;20180;-88
2022/09/27 04:41:29;;;;;;;4.13;1.90;;;;;;;;;;6303038;22;20883;-88
2022/09/27 04:43:59;;;;;;;4.63;1.93;;;;;;;;;;6301704;22;20169;-89
2022/09/27 04:46:30;;;;;;;5.00;2.07;;;;;;;;;;6277100;22;20250;-89
2022/09/27 04:48:57;;;;;;;7.00;2.23;;;;;;;;;;6302120;22;20185;-89
2022/09/27 04:51:26;;;;;;;2.00;1.60;;;;;;;;;;6300955;22;20177;-89
2022/09/27 04:53:54;;;;;;;3.07;2.30;;;;;;;;;;6301882;22;20176;-89
2022/09/27 04:56:22;;;;;;;5.03;2.53;;;;;;;;;;6276175;22;20274;-89
2022/09/27 04:58:49;;;;;;;6.10;2.23;;;;;;;;;;6303057;22;20204;-88
2022/09/27 05:01:16;;;;;;;3.80;2.20;;;;;;;;;;6301603;22;20189;-89
2022/09/27 05:03:44;;;;;;;3.80;2.10;;;;;;;;;;6302336;22;20170;-89
2022/09/27 05:06:11;;;;;;;6.60;2.00;;;;;;;;;;6301558;22;20197;-89
2022/09/27 05:08:40;;;;;;;5.77;2.10;;;;;;;;;;6303144;22;20220;-89
2022/09/27 05:11:08;;;;;;;3.63;1.90;;;;;;;;;;6302193;22;20250;-88
2022/09/27 05:13:35;;;;;;;3.93;2.30;;;;;;;;;;6302389;22;20572;-88
2022/09/27 05:16:04;;;;;;;6.57;2.20;;;;;;;;;;6302842;22;20193;-89
2022/09/27 05:18:32;;;;;;;2.60;1.83;;;;;;;;;;6303316;22;20173;-89
2022/09/27 05:20:59;;;;;;;4.13;2.07;;;;;;;;;;6302920;22;20561;-89
2022/09/27 05:23:27;;;;;;;4.30;2.23;;;;;;;;;;6302931;22;20630;-88
2022/09/27 05:25:56;;;;;;;6.60;2.10;;;;;;;;;;6305393;22;20200;-89
2022/09/27 05:28:24;;;;;;;2.53;1.80;;;;;;;;;;6306185;22;20705;-89
2022/09/27 05:30:51;;;;;;;5.37;2.13;;;;;;;;;;6305773;22;20643;-88
2022/09/27 05:33:19;;;;;;;2.73;1.97;;;;;;;;;;6304169;22;20199;-88
2022/09/27 05:35:52;;;;;;;2.40;1.73;;;;;;;;;;6304904;22;20209;-89
2022/09/27 05:38:19;;;;;;;3.80;1.73;;;;;;;;;;6304246;22;20172;-88
2022/09/27 05:40:49;;;;;;;3.10;1.50;;;;;;;;;;6302973;22;20681;-88
2022/09/27 05:43:20;;;;;;;3.77;2.00;;;;;;;;;;6303284;22;20198;-88
2022/09/27 05:45:48;;;;;;;4.00;1.90;;;;;;;;;;6302982;22;20208;-88
2022/09/27 05:48:18;;;;;;;6.80;1.80;;;;;;;;;;6302561;22;20236;-88
2022/09/27 05:50:45;;;;;;;3.07;1.70;;;;;;;;;;6305080;22;20223;-87
2022/09/27 05:53:14;;;;;;;3.80;2.03;;;;;;;;;;6304024;22;20230;-88
2022/09/27 05:55:41;;;;;;;6.30;2.67;;;;;;;;;;6303583;22;20200;-88
2022/09/27 05:58:15;;;;;;;5.63;2.30;;;;;;;;;;6303997;22;20173;-89
2022/09/27 06:00:44;;;;;;;4.53;2.97;;;;;;;;;;6303303;22;20202;-88
2022/09/27 06:03:12;;;;;;;4.33;2.43;;;;;;;;;;6303515;22;20196;-88
2022/09/27 06:05:40;;;;;;;5.47;2.70;;;;;;;;;;6302020;22;20691;-88
2022/09/27 06:08:08;;;;;;;4.23;3.00;;;;;;;;;;6302060;22;20203;-87
2022/09/27 06:10:35;;;;;;;5.73;2.93;;;;;;;;;;6304108;22;20188;-89
2022/09/27 06:13:04;;;;;;;7.90;3.37;;;;;;;;;;6302002;22;20173;-88
2022/09/27 06:15:32;;;;;;;7.67;3.73;;;;;;;;;;6303122;22;20719;-88
2022/09/27 06:18:05;;;;;;;6.83;3.33;;;;;;;;;;6303133;22;20635;-89
2022/09/27 06:20:34;;;;;;;6.23;3.30;;;;;;;;;;6304059;22;20158;-88
2022/09/27 06:23:06;;;;;;;6.53;3.23;;;;;;;;;;6303576;22;20720;-88
2022/09/27 06:25:33;;;;;;;6.83;3.23;;;;;;;;;;6303482;22;20223;-88
2022/09/27 06:28:01;;;;;;;5.97;3.40;;;;;;;;;;6302978;22;20176;-88
2022/09/27 06:30:28;;;;;;;6.77;3.47;;;;;;;;;;6302109;22;20631;-87
2022/09/27 06:32:56;;;;;;;5.53;3.40;;;;;;;;;;6303519;22;20177;-87
2022/09/27 06:35:26;;;;;;;6.43;3.13;;;;;;;;;;6301318;22;20201;-86
2022/09/27 06:37:54;;;;;;;7.73;3.80;;;;;;;;;;6303018;22;20240;-89
2022/09/27 06:40:23;;;;;;;10.00;3.30;;;;;;;;;;6302872;22;20185;-87
2022/09/27 06:42:51;;;;;;;9.17;3.57;;;;;;;;;;6303169;22;20530;-85
2022/09/27 06:45:19;;;;;;;8.10;3.47;;;;;;;;;;6300244;22;20587;-85
2022/09/27 06:47:46;;;;;;;7.33;3.30;;;;;;;;;;6301935;22;20192;-86
2022/09/27 06:50:14;;;;;;;8.37;4.03;;;;;;;;;;6301572;22;20192;-86
2022/09/27 06:52:49;;;;;;;7.30;3.97;;;;;;;;;;6300527;22;20188;-85
2022/09/27 06:55:17;;;;;;;7.77;3.87;;;;;;;;;;6300639;22;20216;-84
2022/09/27 07:00:30;;;;;;;7.10;3.47;;;;;;;;;;6302329;22;20203;-85
2022/09/27 07:02:59;;;;;;;5.73;3.17;;;;;;;;;;6302501;22;20607;-90
2022/09/27 07:05:28;;;;;;;9.13;3.73;;;;;;;;;;6302631;22;20200;-87
2022/09/27 07:07:57;;;;;;;5.80;3.83;;;;;;;;;;6303964;22;20481;-89
2022/09/27 07:10:27;;;;;;;6.97;4.13;;;;;;;;;;6304639;22;20193;-91
2022/09/27 07:12:55;;;;;;;8.07;3.83;;;;;;;;;;6303469;22;20165;-90
2022/09/27 07:15:23;;;;;;;8.13;3.93;;;;;;;;;;6304465;22;20208;-89
2022/09/27 07:17:57;;;;;;;11.67;4.47;;;;;;;;;;6304740;22;20518;-89
2022/09/27 07:20:25;;;;;;;6.53;4.20;;;;;;;;;;6303650;22;20239;-88
2022/09/27 07:22:53;;;;;;;11.73;4.07;;;;;;;;;;6301987;22;20184;-87
2022/09/27 07:25:22;;;;;;;8.47;4.10;;;;;;;;;;6301247;22;20280;-87
2022/09/27 07:27:51;;;;;;;10.23;3.60;;;;;;;;;;6301273;22;20181;-86
2022/09/27 07:30:19;;;;;;;9.37;3.30;;;;;;;;;;6301001;22;20258;-87
2022/09/27 07:32:46;;;;;;;6.90;2.73;;;;;;;;;;6301934;22;20184;-88
2022/09/27 07:35:14;;;;;;;7.30;2.40;;;;;;;;;;6303566;22;20235;-90
2022/09/27 07:37:43;;;;;;;3.37;2.50;;;;;;;;;;6303666;22;20259;-90
2022/09/27 07:40:11;;;;;;;4.43;3.00;;;;;;;;;;6302537;22;20196;-88
2022/09/27 07:42:41;;;;;;;7.70;3.23;;;;;;;;;;6303825;22;20208;-88
2022/09/27 07:45:10;;;;;;;6.20;2.90;;;;;;;;;;6302849;22;20197;-87
2022/09/27 07:47:43;;;;;;;7.93;3.20;;;;;;;;;;6301552;22;20173;-85
2022/09/27 07:50:11;;;;;;;9.40;3.40;;;;;;;;;;6305054;22;20246;-88
2022/09/27 07:52:42;;;;;;;5.63;3.30;;;;;;;;;;6305798;22;20227;-87
2022/09/27 07:55:10;;;;;;;6.93;3.60;;;;;;;;;;6302814;22;20200;-87
2022/09/27 07:57:37;;;;;;;5.93;3.50;;;;;;;;;;6303557;22;20172;-84
2022/09/27 08:00:08;;;;;;;9.20;3.50;;;;;;;;;;6301716;22;20181;-80
2022/09/27 08:02:36;;;;;;;8.77;4.00;;;;;;;;;;6298052;22;20185;-80
2022/09/27 08:05:04;;;;;;;7.57;4.57;;;;;;;;;;6300488;22;20217;-81
2022/09/27 08:07:32;;;;;;;11.30;4.60;;;;;;;;;;6302479;22;20197;-80
2022/09/27 08:09:59;;;;;;;7.73;4.77;;;;;;;;;;6302295;22;20272;-80
2022/09/27 08:12:27;;;;;;;9.13;4.47;;;;;;;;;;6301783;22;20200;-80
2022/09/27 08:14:57;;;;;;;8.90;4.40;;;;;;;;;;6302719;22;20525;-81
2022/09/27 08:17:26;;;;;;;4.80;4.23;;;;;;;;;;6301392;22;20627;-81
2022/09/27 08:19:53;;;;;;;12.17;4.53;;;;;;;;;;6304473;22;20196;-85
2022/09/27 08:22:21;;;;;;;8.27;4.07;;;;;;;;;;6301927;22;20196;-85
2022/09/27 08:24:48;;;;;;;10.90;3.90;;;;;;;;;;6304503;22;20219;-86
2022/09/27 08:27:16;;;;;;;4.53;3.67;;;;;;;;;;6303157;22;20176;-82
2022/09/27 08:29:43;;;;;;;8.10;4.00;;;;;;;;;;6300577;22;20203;-80
2022/09/27 08:32:11;;;;;;;7.40;3.43;;;;;;;;;;6302822;22;20203;-82
2022/09/27 08:34:40;;;;;;;6.40;3.60;;;;;;;;;;6304355;22;20236;-82
2022/09/27 08:37:08;;;;;;;5.37;2.93;;;;;;;;;;6308301;22;20227;-83
2022/09/27 08:39:35;;;;;;;6.27;2.63;;;;;;;;;;6302400;22;20169;-84
2022/09/27 08:42:07;;;;;;;3.13;2.50;;;;;;;;;;6304435;22;20234;-84
2022/09/27 08:44:39;;;;;;;6.50;2.63;;;;;;;;;;6298245;22;20691;-85
2022/09/27 08:47:12;;;;;;;42.97;23.53;;;;;;;;;;6298993;22;20176;-84
2022/09/27 08:49:44;;;;;;;35.37;21.03;;;;;;;;;;6302893;22;20223;-86
2022/09/27 08:52:15;;;;;;;36.47;21.70;;;;;;;;;;6303406;22;20157;-85
2022/09/27 08:54:43;;;;;;;17.33;8.37;;;;;;;;;;6302287;22;20228;-85
2022/09/27 08:57:11;;;;;;;7.53;4.53;;;;;;;;;;6305304;22;20655;-84
2022/09/27 08:59:41;;;;;;;3.70;2.20;;;;;;;;;;6303422;22;20485;-83
2022/09/27 09:05:26;;;;;;;2.70;1.70;;;;;;;;;;6303638;22;20663;-85
2022/09/27 09:08:01;;;;;;;11.80;4.23;;;;;;;;;;6304522;22;20161;-86
2022/09/27 09:13:32;;;;;;;3.03;1.80;;;;;;;;;;6305283;22;20192;-82
2022/09/27 09:16:03;;;;;;;5.27;1.70;;;;;;;;;;6302700;22;20267;-85
2022/09/27 09:18:35;;;;;;;9.40;1.97;;;;;;;;;;6301197;22;20715;-83
2022/09/27 09:21:12;;;;;;;2.07;1.40;;;;;;;;;;6304350;22;20249;-84
2022/09/27 09:23:48;;;;;;;3.10;1.60;;;;;;;;;;6303379;22;20187;-85
2022/09/27 09:26:18;;;;;;;2.43;1.30;;;;;;;;;;6302425;22;20249;-85
2022/09/27 09:28:56;;;;;;;2.10;1.50;;;;;;;;;;6308912;22;20201;-83
2022/09/27 09:31:29;;;;;;;3.57;1.80;;;;;;;;;;6306800;22;20247;-82
2022/09/27 09:33:58;;;;;;;3.17;1.50;;;;;;;;;;6305850;22;20587;-84
2022/09/27 09:36:59;;;;;;;6.43;1.50;;;;;;;;;;6306029;22;20703;-84
2022/09/27 09:39:34;;;;;;;1.90;1.40;;;;;;;;;;6210304;23;20198;-83
2022/09/27 09:42:05;;;;;;;3.47;1.27;;;;;;;;;;6185036;23;20182;-84
2022/09/27 09:44:40;;;;;;;2.20;1.43;;;;;;;;;;6245448;22;20208;-86
2022/09/27 09:47:11;;;;;;;3.93;1.50;;;;;;;;;;6303909;22;20161;-84
2022/09/27 09:49:43;;;;;;;3.23;2.00;;;;;;;;;;6302072;22;20276;-85
2022/09/27 09:52:12;;;;;;;2.07;1.30;;;;;;;;;;6302238;22;20616;-84
2022/09/27 09:54:53;;;;;;;1.97;1.43;;;;;;;;;;6305154;22;20221;-84
2022/09/27 09:57:24;;;;;;;5.37;2.53;;;;;;;;;;6304694;22;20192;-85
2022/09/27 09:59:53;;;;;;;2.00;1.17;;;;;;;;;;6305869;22;20158;-83
2022/09/27 10:02:26;;;;;;;1.37;0.90;;;;;;;;;;6301056;22;20181;-81
2022/09/27 10:04:53;;;;;;;1.30;0.90;;;;;;;;;;6299857;22;20228;-84
2022/09/27 10:07:23;;;;;;;5.00;1.40;;;;;;;;;;6307399;22;20244;-84
2022/09/27 10:09:53;;;;;;;1.90;1.30;;;;;;;;;;6308721;22;20666;-85
2022/09/27 10:12:20;;;;;;;2.50;1.00;;;;;;;;;;6279540;22;20204;-84
2022/09/27 10:14:48;;;;;;;3.97;2.13;;;;;;;;;;6306801;22;20213;-85
2022/09/27 10:17:18;;;;;;;3.13;1.10;;;;;;;;;;6316397;22;20165;-85
2022/09/27 10:19:47;;;;;;;3.17;1.10;;;;;;;;;;6328716;22;20193;-84
2022/09/27 10:22:27;;;;;;;3.73;1.10;;;;;;;;;;6323211;22;20529;-82
2022/09/27 10:24:57;;;;;;;3.80;1.37;;;;;;;;;;6323091;22;20196;-79
2022/09/27 10:27:25;;;;;;;4.23;0.90;;;;;;;;;;6317606;22;20208;-83
2022/09/27 10:30:01;;;;;;;1.30;0.80;;;;;;;;;;6307297;22;20189;-82
2022/09/27 10:32:32;;;;;;;1.07;0.60;;;;;;;;;;6309965;22;20176;-83
2022/09/27 10:35:15;;;;;;;1.20;0.80;;;;;;;;;;6303938;22;20257;-84
2022/09/27 10:37:44;;;;;;;1.50;0.90;;;;;;;;;;6304881;22;20203;-83
2022/09/27 10:40:25;;;;;;;2.83;1.20;;;;;;;;;;6305427;22;20180;-83
2022/09/27 10:42:52;;;;;;;3.80;1.20;;;;;;;;;;6308305;22;20167;-83
2022/09/27 10:45:28;;;;;;;1.70;1.37;;;;;;;;;;6302137;22;20315;-84
2022/09/27 10:47:56;;;;;;;3.93;1.87;;;;;;;;;;6304431;22;20238;-86
2022/09/27 10:50:25;;;;;;;5.83;1.60;;;;;;;;;;6304955;22;20220;-85
2022/09/27 10:53:02;;;;;;;1.60;1.37;;;;;;;;;;6306509;22;20176;-84
2022/09/27 10:55:33;;;;;;;3.97;0.63;;;;;;;;;;6310405;22;20192;-85
2022/09/27 10:58:01;;;;;;;30.97;15.37;;;;;;;;;;6308380;22;20188;-86
2022/09/27 11:00:33;;;;;;;19.37;9.73;;;;;;;;;;6307780;22;20173;-86
2022/09/27 11:03:03;;;;;;;6.50;2.17;;;;;;;;;;6305843;22;20533;-86
2022/09/27 11:05:35;;;;;;;2.20;1.37;;;;;;;;;;6308223;22;20271;-86
2022/09/27 11:08:04;;;;;;;2.90;0.70;;;;;;;;;;6308133;22;20699;-86
2022/09/27 11:10:33;;;;;;;1.53;1.40;;;;;;;;;;6307912;22;20193;-85
2022/09/27 11:13:14;;;;;;;3.10;0.60;;;;;;;;;;6304922;22;20600;-88
2022/09/27 11:15:47;;;;;;;13.77;8.67;;;;;;;;;;6304278;22;20195;-84
2022/09/27 11:18:20;;;;;;;12.50;8.70;;;;;;;;;;6304267;22;20388;-85
2022/09/27 11:20:52;;;;;;;8.23;3.07;;;;;;;;;;6303741;22;20162;-86
2022/09/27 11:23:25;;;;;;;1.17;1.07;;;;;;;;;;6306289;22;20168;-87
2022/09/27 11:26:03;;;;;;;1.07;0.80;;;;;;;;;;6305110;22;20242;-85
2022/09/27 11:28:35;;;;;;;2.60;0.90;;;;;;;;;;6305361;22;20233;-82
2022/09/27 11:31:06;;;;;;;1.77;0.90;;;;;;;;;;6309241;22;20196;-80
2022/09/27 11:34:05;;;;;;;1.37;0.80;;;;;;;;;;6303214;22;20153;-80
2022/09/27 11:36:38;;;;;;;1.27;0.60;;;;;;;;;;6302980;22;20201;-80
2022/09/27 11:39:10;;;;;;;4.00;0.70;;;;;;;;;;6303565;22;20204;-81
2022/09/27 11:41:45;;;;;;;3.10;0.90;;;;;;;;;;6307235;22;20249;-83
2022/09/27 11:44:19;;;;;;;0.43;0.30;;;;;;;;;;6302435;22;20168;-81
2022/09/27 11:46:49;;;;;;;1.17;0.63;;;;;;;;;;6299965;22;20177;-82
2022/09/27 11:49:24;;;;;;;3.17;0.70;;;;;;;;;;6298491;22;20177;-83
2022/09/27 11:52:11;;;;;;;3.43;0.50;;;;;;;;;;6313746;22;20184;-82
2022/09/27 11:54:59;;;;;;;1.93;0.50;;;;;;;;;;6302534;22;20280;-84
2022/09/27 11:57:33;;;;;;;1.20;0.60;;;;;;;;;;6294722;22;20226;-85
2022/09/27 12:00:09;;;;;;;1.03;0.50;;;;;;;;;;6299197;22;20596;-84
2022/09/27 12:02:46;;;;;;;1.10;0.63;;;;;;;;;;6298614;22;20542;-83
2022/09/27 12:05:19;;;;;;;1.43;0.50;;;;;;;;;;6304156;22;20223;-86
2022/09/27 12:07:50;;;;;;;2.40;0.70;;;;;;;;;;6305470;22;20173;-84
2022/09/27 12:10:21;;;;;;;2.10;0.70;;;;;;;;;;6303484;22;20188;-82
2022/09/27 12:12:53;;;;;;;1.20;0.50;;;;;;;;;;6304102;22;20161;-85
2022/09/27 12:15:22;;;;;;;2.43;0.60;;;;;;;;;;6303430;22;20197;-85
2022/09/27 12:17:51;;;;;;;0.97;0.80;;;;;;;;;;6303720;22;20201;-84
2022/09/27 12:20:23;;;;;;;2.20;1.43;;;;;;;;;;6305413;22;20177;-84
2022/09/27 12:22:53;;;;;;;1.00;0.70;;;;;;;;;;6304002;22;20196;-82
2022/09/27 12:25:21;;;;;;;2.27;1.00;;;;;;;;;;6306486;22;20199;-85
2022/09/27 12:27:51;;;;;;;1.57;1.00;;;;;;;;;;6304392;22;20176;-86
2022/09/27 12:30:24;;;;;;;1.60;1.17;;;;;;;;;;6302129;22;20275;-85
2022/09/27 12:32:54;;;;;;;1.90;1.57;;;;;;;;;;6301759;22;20168;-86
2022/09/27 12:35:24;;;;;;;4.53;1.30;;;;;;;;;;6304060;22;20193;-83
2022/09/27 12:37:55;;;;;;;2.97;1.37;;;;;;;;;;6303790;22;20259;-86
2022/09/27 12:40:26;;;;;;;2.03;1.03;;;;;;;;;;6303798;22;20623;-85
2022/09/27 12:42:55;;;;;;;2.77;1.20;;;;;;;;;;6305232;22;20172;-84
2022/09/27 12:45:28;;;;;;;2.23;1.70;;;;;;;;;;6305950;22;20235;-85
2022/09/27 12:48:03;;;;;;;2.63;1.40;;;;;;;;;;6306623;22;20157;-85
2022/09/27 12:50:35;;;;;;;3.93;1.40;;;;;;;;;;6307463;22;20259;-83
2022/09/27 12:53:05;;;;;;;4.50;1.60;;;;;;;;;;6305641;22;20211;-85
2022/09/27 12:55:54;;;;;;;3.20;1.43;;;;;;;;;;6307979;22;20200;-84
2022/09/27 12:58:28;;;;;;;3.30;2.03;;;;;;;;;;6312373;22;20256;-83
2022/09/27 13:04:15;;;;;;;4.67;1.10;;;;;;;;;;6301880;22;20180;-84
2022/09/27 13:07:20;;;;;;;2.00;1.00;;;;;;;;;;6304261;22;20204;-84
2022/09/27 13:10:00;;;;;;;3.33;1.30;;;;;;;;;;6294236;22;20173;-84
2022/09/27 13:12:28;;;;;;;4.40;1.40;;;;;;;;;;6306330;22;20338;-90
2022/09/27 13:15:01;;;;;;;2.77;1.00;;;;;;;;;;6308338;22;20204;-87
2022/09/27 13:17:47;;;;;;;3.43;0.70;;;;;;;;;;6310051;22;20204;-89
2022/09/27 13:20:35;;;;;;;2.37;0.90;;;;;;;;;;6308501;22;20755;-90
2022/09/27 13:23:03;;;;;;;1.60;0.80;;;;;;;;;;6307560;22;20183;-91
2022/09/27 13:25:52;;;;;;;2.70;1.20;;;;;;;;;;6307068;22;20203;-90
2022/09/27 13:28:34;;;;;;;1.97;1.00;;;;;;;;;;6307253;22;20177;-90
2022/09/27 13:31:03;;;;;;;2.10;1.20;;;;;;;;;;6307224;22;20242;-90
2022/09/27 13:33:52;;;;;;;2.33;1.20;;;;;;;;;;6283721;22;20291;-91
2022/09/27 13:36:22;;;;;;;2.40;1.00;;;;;;;;;;6306990;22;20205;-91
2022/09/27 13:39:04;;;;;;;2.17;0.87;;;;;;;;;;6306287;22;20169;-91
2022/09/27 13:41:37;;;;;;;1.47;0.80;;;;;;;;;;6306439;22;20204;-89
2022/09/27 13:44:07;;;;;;;1.53;1.00;;;;;;;;;;6303654;22;20185;-90
2022/09/27 13:46:36;;;;;;;1.90;1.20;;;;;;;;;;6305493;22;20189;-89
2022/09/27 13:49:06;;;;;;;1.17;0.90;;;;;;;;;;6305091;22;20227;-88
2022/09/27 13:51:40;;;;;;;3.00;1.70;;;;;;;;;;6305599;22;20193;-91
2022/09/27 13:54:27;;;;;;;2.30;1.70;;;;;;;;;;6305336;22;20163;-89
2022/09/27 13:56:56;;;;;;;1.23;1.03;;;;;;;;;;6304977;22;20173;-88
2022/09/27 13:59:26;;;;;;;2.83;0.87;;;;;;;;;;6306312;22;20260;-89
2022/09/27 14:01:55;;;;;;;1.20;0.73;;;;;;;;;;6305643;22;20231;-88
2022/09/27 14:04:25;;;;;;;1.93;1.10;;;;;;;;;;6305515;22;20172;-89
2022/09/27 14:06:56;;;;;;;2.43;1.10;;;;;;;;;;6304166;22;20230;-89
2022/09/27 14:09:27;;;;;;;2.63;1.10;;;;;;;;;;6303588;22;20192;-89
2022/09/27 14:11:55;;;;;;;2.20;0.90;;;;;;;;;;6304206;22;20185;-86
2022/09/27 14:14:31;;;;;;;2.20;1.00;;;;;;;;;;6304480;22;20207;-90
2022/09/27 14:17:00;;;;;;;4.73;1.73;;;;;;;;;;6305624;22;20180;-90
2022/09/27 14:19:27;;;;;;;1.30;1.07;;;;;;;;;;6305684;22;20200;-90
2022/09/27 14:21:55;;;;;;;1.70;1.47;;;;;;;;;;6305046;22;20208;-87
2022/09/27 14:24:30;;;;;;;3.83;1.90;;;;;;;;;;6303819;22;20232;-88
2022/09/27 14:27:06;;;;;;;2.97;1.37;;;;;;;;;;6306292;22;20177;-89
2022/09/27 14:29:40;;;;;;;2.07;1.30;;;;;;;;;;6305318;22;20183;-88
2022/09/27 14:32:10;;;;;;;3.10;1.33;;;;;;;;;;6305508;22;20185;-91
2022/09/27 14:34:38;;;;;;;2.47;1.20;;;;;;;;;;6306343;22;20199;-86
2022/09/27 14:37:22;;;;;;;4.07;1.50;;;;;;;;;;6305002;22;20216;-90
2022/09/27 14:39:54;;;;;;;3.00;1.30;;;;;;;;;;6306614;22;20176;-89
2022/09/27 14:42:23;;;;;;;2.13;1.30;;;;;;;;;;6305395;22;20197;-89
2022/09/27 14:44:53;;;;;;;3.40;1.30;;;;;;;;;;6304895;22;20205;-89
2022/09/27 14:47:22;;;;;;;4.03;1.43;;;;;;;;;;6304575;22;20226;-91
2022/09/27 14:49:50;;;;;;;2.43;1.50;;;;;;;;;;6305223;22;20162;-90
2022/09/27 14:52:26;;;;;;;2.17;1.37;;;;;;;;;;6307742;22;20300;-89
2022/09/27 14:54:58;;;;;;;7.30;1.47;;;;;;;;;;6307474;22;20438;-90
2022/09/27 14:57:27;;;;;;;3.83;1.40;;;;;;;;;;6307230;22;20173;-88
2022/09/27 14:59:57;;;;;;;3.70;1.57;;;;;;;;;;6305188;22;20205;-90
2022/09/27 15:02:25;;;;;;;3.10;1.30;;;;;;;;;;6307257;22;20180;-90
2022/09/27 15:04:53;;;;;;;2.40;1.50;;;;;;;;;;6306838;22;20203;-92
2022/09/27 15:07:21;;;;;;;6.80;4.13;;;;;;;;;;6309769;22;20173;-92
2022/09/27 15:09:49;;;;;;;5.73;3.40;;;;;;;;;;6308623;22;20192;-89
2022/09/27 15:12:24;;;;;;;2.67;1.53;;;;;;;;;;6307225;22;20730;-92
2022/09/27 15:14:52;;;;;;;4.90;2.07;;;;;;;;;;6307805;22;20196;-90
2022/09/27 15:17:21;;;;;;;3.97;2.00;;;;;;;;;;6304076;22;20231;-90
2022/09/27 15:19:59;;;;;;;5.37;3.10;;;;;;;;;;6306378;22;20191;-91
2022/09/27 15:22:34;;;;;;;4.53;2.37;;;;;;;;;;6306325;22;20179;-93
2022/09/27 15:25:20;;;;;;;3.50;1.90;;;;;;;;;;6305907;22;20215;-93